Time;durP1;ratioP1;P1;durP2;ratioP2;P2;SDS_P1;SDS_P2;PMS_P1;PMS_P2;Temp;Humidity;BMP_temperature;BMP_pressure;BME280_temperature;BME280_humidity;BME280_pressure;Samples;Min_cycle;Max_cycle;Signal;HPM_P1;HPM_P2
2022/04/27 00:02:10;;;;;;;;;9.50;8.25;;;;;12.45;37.31;101679.19;4983030;28;45659;-62
2022/04/27 00:04:36;;;;;;;;;10.25;10.25;;;;;12.41;37.54;101673.06;4983280;28;47048;-62
2022/04/27 00:07:04;;;;;;;;;11.50;10.25;;;;;12.40;37.49;101675.72;4983059;28;45267;-62
2022/04/27 00:09:32;;;;;;;;;9.00;8.75;;;;;12.36;37.78;101672.22;4981985;28;45357;-62
2022/04/27 00:12:00;;;;;;;;;11.75;11.00;;;;;12.33;37.45;101674.91;4982832;28;45497;-62
2022/04/27 00:14:30;;;;;;;;;11.50;9.50;;;;;12.32;37.55;101678.41;4982642;28;46891;-62
2022/04/27 00:16:56;;;;;;;;;11.50;10.25;;;;;12.29;37.71;101679.31;4982801;28;45271;-62
2022/04/27 00:19:23;;;;;;;;;10.00;9.75;;;;;12.26;37.62;101683.72;4983109;28;45282;-61
2022/04/27 00:21:48;;;;;;;;;9.75;9.25;;;;;12.23;37.86;101679.34;4982542;28;45675;-62
2022/04/27 00:24:13;;;;;;;;;10.00;9.00;;;;;12.19;37.69;101673.22;4982800;28;46094;-61
2022/04/27 00:26:38;;;;;;;;;8.00;8.00;;;;;12.17;37.70;101679.38;4982604;28;45412;-62
2022/04/27 00:29:04;;;;;;;;;7.25;6.50;;;;;12.15;37.77;101681.13;4982932;28;45389;-62
2022/04/27 00:31:31;;;;;;;;;9.75;9.75;;;;;12.12;37.72;101681.16;4982514;28;45636;-62
2022/04/27 00:33:57;;;;;;;;;11.00;8.25;;;;;12.09;37.70;101684.69;4982680;28;47008;-62
2022/04/27 00:36:23;;;;;;;;;10.50;10.25;;;;;12.03;38.01;101676.81;4982476;28;45383;-62
2022/04/27 00:38:48;;;;;;;;;11.75;11.00;;;;;12.03;38.03;101677.69;4982773;28;45321;-62
2022/04/27 00:41:14;;;;;;;;;9.75;9.50;;;;;12.00;37.80;101679.47;4981111;28;45516;-62
2022/04/27 00:43:41;;;;;;;;;10.00;9.25;;;;;11.99;37.96;101680.38;4982312;28;46037;-61
2022/04/27 00:46:09;;;;;;;;;11.75;9.25;;;;;11.96;37.96;101677.72;4981273;28;45293;-62
2022/04/27 00:48:36;;;;;;;;;7.00;7.00;;;;;11.94;37.98;101676.84;4982651;28;45243;-61
2022/04/27 00:51:03;;;;;;;;;10.75;10.75;;;;;11.91;38.11;101679.47;4980952;28;45380;-62
2022/04/27 00:53:29;;;;;;;;;10.25;10.00;;;;;11.85;37.93;101669.88;4982411;28;45653;-62
2022/04/27 00:55:56;;;;;;;;;8.25;8.00;;;;;11.86;38.00;101679.50;4982226;28;45504;-61
2022/04/27 00:58:24;;;;;;;;;12.25;10.00;;;;;11.82;38.23;101678.66;4981287;28;45173;-61
2022/04/27 01:00:50;;;;;;;;;10.00;10.00;;;;;11.80;38.03;101674.28;4981726;28;45245;-61
2022/04/27 01:03:16;;;;;;;;;12.50;10.25;;;;;11.76;38.27;101670.78;4981394;28;45483;-61
2022/04/27 01:05:42;;;;;;;;;11.25;11.25;;;;;11.70;38.17;101668.16;4980963;28;45433;-61
2022/04/27 01:08:08;;;;;;;;;10.75;9.75;;;;;11.63;38.26;101656.75;4982398;28;45550;-61
2022/04/27 01:10:34;;;;;;;;;6.50;5.50;;;;;11.68;38.21;101660.28;4981886;28;45405;-61
2022/04/27 01:12:59;;;;;;;;;10.75;10.25;;;;;11.66;38.31;101656.78;4982061;28;45437;-61
2022/04/27 01:15:36;;;;;;;;;11.00;11.00;;;;;11.63;38.16;101662.03;4981770;28;45332;-61
2022/04/27 01:18:03;;;;;;;;;10.00;10.00;;;;;11.62;38.32;101662.03;4982541;28;45727;-62
2022/04/27 01:20:35;;;;;;;;;13.50;12.00;;;;;11.60;38.36;101666.47;4981886;28;45472;-62
2022/04/27 01:23:01;;;;;;;;;11.25;9.50;;;;;11.58;38.14;101660.31;4980714;28;46174;-61
2022/04/27 01:25:27;;;;;;;;;11.00;11.00;;;;;11.53;38.38;101661.22;4981282;28;45345;-61
2022/04/27 01:27:53;;;;;;;;;11.75;10.50;;;;;11.52;38.56;101659.47;4982112;28;45549;-61
2022/04/27 01:30:19;;;;;;;;;7.50;7.50;;;;;11.51;38.43;101667.38;4981640;28;45181;-61
2022/04/27 01:32:45;;;;;;;;;9.50;9.50;;;;;11.47;38.48;101658.59;4981498;28;47132;-61
2022/04/27 01:35:10;;;;;;;;;9.75;9.75;;;;;11.45;38.63;101656.84;4981634;28;45432;-61
2022/04/27 01:40:19;;;;;;;;;9.75;9.75;;;;;11.38;38.71;101667.41;4981772;28;45414;-61
2022/04/27 01:42:45;;;;;;;;;10.25;10.00;;;;;11.34;38.97;101662.13;4981259;28;45422;-61
2022/04/27 01:45:10;;;;;;;;;9.75;9.00;;;;;11.33;38.55;101658.66;4980187;28;45299;-61
2022/04/27 01:47:36;;;;;;;;;11.00;11.00;;;;;11.29;38.49;101656.88;4981807;28;45392;-61
2022/04/27 01:50:01;;;;;;;;;11.50;10.00;;;;;11.31;38.67;101662.16;4981703;28;45344;-61
2022/04/27 01:55:10;;;;;;;;;10.50;10.25;;;;;11.21;38.66;101659.53;4981455;28;45231;-61
2022/04/27 01:57:35;;;;;;;;;13.75;11.25;;;;;11.23;38.44;101662.16;4980249;28;45536;-61
2022/04/27 02:00:01;;;;;;;;;12.25;9.75;;;;;11.21;38.84;101672.69;4980062;28;45622;-61
2022/04/27 02:02:26;;;;;;;;;12.25;11.00;;;;;11.18;38.86;101666.56;4981250;28;46361;-61
2022/04/27 02:04:52;;;;;;;;;14.50;12.00;;;;;11.15;38.87;101663.94;4980156;28;45322;-61
2022/04/27 02:07:17;;;;;;;;;11.25;10.75;;;;;11.15;38.80;101671.84;4981657;28;45387;-61
2022/04/27 02:09:42;;;;;;;;;5.50;5.50;;;;;11.13;39.11;101673.56;4981501;28;45522;-61
2022/04/27 02:12:08;;;;;;;;;11.25;11.25;;;;;11.11;38.84;101670.97;4981284;28;45289;-60
2022/04/27 02:14:33;;;;;;;;;11.75;11.00;;;;;11.09;38.82;101677.97;4979689;28;45390;-61
2022/04/27 02:16:59;;;;;;;;;11.75;10.75;;;;;11.07;38.91;101671.84;4981295;28;45297;-61
2022/04/27 02:19:24;;;;;;;;;10.50;9.00;;;;;11.05;39.10;101671.81;4981343;28;45273;-61
2022/04/27 02:21:49;;;;;;;;;13.50;11.00;;;;;11.01;39.17;101675.34;4979594;28;46224;-61
2022/04/27 02:24:15;;;;;;;;;13.50;12.75;;;;;11.00;39.20;101670.09;4981056;28;45289;-61
2022/04/27 02:26:42;;;;;;;;;12.00;9.50;;;;;10.98;39.23;101672.72;4981035;28;45291;-62
2022/04/27 02:29:08;;;;;;;;;14.00;13.00;;;;;10.92;39.22;101667.47;4979541;28;45542;-61
2022/04/27 02:31:34;;;;;;;;;14.50;12.25;;;;;10.93;39.05;101663.97;4980507;28;46014;-62
2022/04/27 02:34:00;;;;;;;;;11.25;9.75;;;;;10.91;39.29;101665.72;4980802;28;45294;-63
2022/04/27 02:36:25;;;;;;;;;12.75;11.75;;;;;10.88;39.00;101668.38;4979106;28;45298;-63
2022/04/27 02:38:51;;;;;;;;;11.75;11.50;;;;;10.86;39.49;101664.84;4980917;28;45474;-63
2022/04/27 02:41:16;;;;;;;;;13.50;13.50;;;;;10.84;39.20;101675.38;4980598;28;46191;-63
2022/04/27 02:43:41;;;;;;;;;11.75;10.25;;;;;10.81;39.44;101669.25;4980588;28;45400;-63
2022/04/27 02:46:07;;;;;;;;;14.00;12.00;;;;;10.79;39.45;101670.97;4981022;28;45715;-62
2022/04/27 02:48:32;;;;;;;;;13.50;12.50;;;;;10.77;39.51;101668.34;4980951;28;45279;-63
2022/04/27 02:53:41;;;;;;;;;12.50;10.00;;;;;10.69;39.43;101665.75;4980680;28;45337;-63
2022/04/27 02:56:07;;;;;;;;;13.50;12.75;;;;;10.69;39.43;101665.75;4980397;28;45323;-63
2022/04/27 02:58:32;;;;;;;;;13.00;13.00;;;;;10.68;39.41;101663.13;4978978;28;45363;-63
2022/04/27 03:00:57;;;;;;;;;11.50;10.50;;;;;10.63;39.51;101663.09;4980305;28;46314;-62
2022/04/27 03:03:23;;;;;;;;;13.00;13.00;;;;;10.63;39.64;101663.09;4980678;28;45298;-63
2022/04/27 03:05:48;;;;;;;;;14.00;13.00;;;;;10.58;39.94;101651.72;4980681;28;45448;-63
2022/04/27 03:08:14;;;;;;;;;14.50;13.25;;;;;10.61;39.74;101671.88;4979197;28;45364;-62
2022/04/27 03:10:39;;;;;;;;;12.00;11.50;;;;;10.60;39.72;101673.59;4980162;28;47015;-63
2022/04/27 03:13:05;;;;;;;;;13.75;12.25;;;;;10.55;39.65;101667.47;4980482;28;45402;-63
2022/04/27 03:15:32;;;;;;;;;12.25;11.00;;;;;10.55;39.69;101664.84;4980252;28;45291;-63
2022/04/27 03:20:41;;;;;;;;;12.75;12.25;;;;;10.49;39.92;101657.84;4980096;28;45219;-63
2022/04/27 03:23:07;;;;;;;;;12.50;12.00;;;;;10.49;39.83;101657.84;4980082;28;45152;-62
2022/04/27 03:25:33;;;;;;;;;12.50;12.50;;;;;10.47;39.81;101662.22;4981893;28;45609;-63
2022/04/27 03:27:58;;;;;;;;;9.75;9.75;;;;;10.45;39.82;101661.31;4983828;28;45225;-63
2022/04/27 03:30:24;;;;;;;;;15.25;14.25;;;;;10.43;39.99;101660.47;4983329;28;45412;-63
2022/04/27 03:32:49;;;;;;;;;16.25;14.00;;;;;10.41;39.97;101667.44;4983501;28;45502;-63
2022/04/27 03:35:14;;;;;;;;;19.00;15.50;;;;;10.39;39.83;101659.56;4983618;28;45435;-63
2022/04/27 03:37:40;;;;;;;;;14.75;12.25;;;;;10.37;40.24;101658.69;4983738;28;45257;-63
2022/04/27 03:40:06;;;;;;;;;13.75;13.50;;;;;10.36;40.13;101666.56;4983383;28;45821;-63
2022/04/27 03:42:32;;;;;;;;;15.00;11.50;;;;;10.34;40.03;101655.16;4982131;28;45384;-63
2022/04/27 03:44:57;;;;;;;;;10.00;10.00;;;;;10.32;40.32;101646.41;4983269;28;45309;-63
2022/04/27 03:47:22;;;;;;;;;14.25;12.50;;;;;10.31;40.12;101653.38;4983539;28;45310;-62
2022/04/27 03:49:48;;;;;;;;;14.00;13.00;;;;;10.29;40.22;101652.53;4983275;28;45286;-63
2022/04/27 03:52:13;;;;;;;;;13.75;12.75;;;;;10.27;40.31;101656.88;4983416;28;45394;-62
2022/04/27 03:54:38;;;;;;;;;17.75;17.25;;;;;10.27;40.37;101661.28;4981989;28;45283;-63
2022/04/27 03:57:04;;;;;;;;;14.25;13.50;;;;;10.26;40.16;101655.13;4983459;28;45353;-62
2022/04/27 03:59:29;;;;;;;;;15.50;15.00;;;;;10.22;40.55;101658.63;4982789;28;45339;-63
2022/04/27 04:01:54;;;;;;;;;13.00;12.25;;;;;10.20;40.44;101652.50;4983407;28;45341;-63
2022/04/27 04:04:20;;;;;;;;;19.00;15.50;;;;;10.21;40.31;101660.41;4983234;28;45460;-63
2022/04/27 04:06:45;;;;;;;;;17.25;14.50;;;;;10.17;40.49;101655.13;4983420;28;45318;-63
2022/04/27 04:09:11;;;;;;;;;16.50;14.50;;;;;10.14;40.60;101655.09;4982646;28;46630;-64
2022/04/27 04:11:36;;;;;;;;;12.75;12.25;;;;;10.16;40.60;101663.88;4983121;28;45373;-63
2022/04/27 04:14:01;;;;;;;;;17.00;12.50;;;;;10.15;40.66;101664.75;4982783;28;45293;-63
2022/04/27 04:16:27;;;;;;;;;19.50;15.50;;;;;10.12;40.73;101665.63;4983222;28;45205;-63
2022/04/27 04:18:52;;;;;;;;;14.00;14.00;;;;;10.11;40.69;101674.34;4982631;28;46487;-63
2022/04/27 04:21:17;;;;;;;;;15.00;15.00;;;;;10.07;40.74;101670.88;4982989;28;45383;-63
2022/04/27 04:23:43;;;;;;;;;18.75;15.50;;;;;10.06;40.69;101683.97;4982867;28;45393;-63
2022/04/27 04:28:52;;;;;;;;;16.50;11.50;;;;;10.02;40.61;101682.22;4982586;28;45808;-63
2022/04/27 04:31:18;;;;;;;;;16.75;16.75;;;;;9.99;40.79;101683.09;4982630;28;45317;-63
2022/04/27 04:33:43;;;;;;;;;18.75;15.00;;;;;9.99;40.95;101687.47;4981658;28;45399;-63
2022/04/27 04:36:09;;;;;;;;;13.00;13.00;;;;;9.98;40.95;101683.09;4980154;28;45244;-63
2022/04/27 04:38:34;;;;;;;;;17.75;17.75;;;;;9.96;41.05;101683.09;4981951;28;46026;-63
2022/04/27 04:41:00;;;;;;;;;16.75;14.50;;;;;9.93;40.90;101678.69;4982592;28;45398;-63
2022/04/27 04:43:25;;;;;;;;;15.25;14.00;;;;;9.89;40.97;101670.81;4982468;28;45417;-63
2022/04/27 04:45:50;;;;;;;;;20.75;16.75;;;;;9.92;41.03;101686.56;4982834;28;45429;-63
2022/04/27 04:48:16;;;;;;;;;22.50;18.00;;;;;9.90;41.08;101685.69;4982475;28;46564;-63
2022/04/27 04:50:41;;;;;;;;;19.25;16.75;;;;;9.88;41.02;101690.06;4982621;28;45459;-64
2022/04/27 04:53:07;;;;;;;;;16.75;14.25;;;;;9.88;41.10;101690.06;4982384;28;45449;-64
2022/04/27 04:55:33;;;;;;;;;16.50;16.50;;;;;9.86;41.12;101692.69;4981015;28;45343;-64
2022/04/27 04:57:58;;;;;;;;;20.75;17.75;;;;;9.85;41.09;101696.19;4982213;28;46072;-64
2022/04/27 05:00:25;;;;;;;;;19.50;17.75;;;;;9.84;41.22;101696.19;4982084;28;45432;-64
2022/04/27 05:02:50;;;;;;;;;19.00;16.00;;;;;9.84;41.14;101698.81;4982334;28;45408;-64
2022/04/27 05:05:15;;;;;;;;;19.25;18.75;;;;;9.81;41.35;101702.28;4982322;28;45334;-64
2022/04/27 05:07:41;;;;;;;;;20.50;17.75;;;;;9.79;41.24;101695.28;4980824;28;48421;-64
2022/04/27 05:10:07;;;;;;;;;23.00;21.25;;;;;9.78;41.54;101701.41;4982089;28;45266;-64
2022/04/27 05:12:34;;;;;;;;;19.50;19.25;;;;;9.76;41.53;101701.41;4982307;28;45300;-64
2022/04/27 05:15:00;;;;;;;;;18.00;14.50;;;;;9.78;41.44;101698.78;4964312;28;45287;-64
2022/04/27 05:17:25;;;;;;;;;18.50;17.75;;;;;9.76;41.35;101707.50;4981911;28;45290;-64
2022/04/27 05:19:52;;;;;;;;;17.25;16.75;;;;;9.76;41.49;101709.28;4982204;28;45215;-64
2022/04/27 05:22:17;;;;;;;;;18.50;14.75;;;;;9.75;41.47;101713.63;4980625;28;45593;-64
2022/04/27 05:24:43;;;;;;;;;17.50;17.50;;;;;9.76;41.48;101715.38;4980583;28;45322;-63
2022/04/27 05:27:08;;;;;;;;;20.25;16.25;;;;;9.76;41.59;101718.00;4981600;28;45294;-63
2022/04/27 05:32:17;;;;;;;;;20.25;19.50;;;;;9.76;41.27;101720.63;4981626;28;45448;-63
2022/04/27 05:34:43;;;;;;;;;24.25;23.25;;;;;9.74;41.68;101719.75;4981812;28;45409;-63
2022/04/27 05:37:09;;;;;;;;;20.00;15.75;;;;;9.76;41.85;101725.03;4980376;28;46258;-63
2022/04/27 05:39:34;;;;;;;;;21.75;19.75;;;;;9.72;41.98;101724.13;4981655;28;45342;-64
2022/04/27 05:41:59;;;;;;;;;19.25;18.75;;;;;9.78;41.77;101725.03;4981915;28;45376;-63
2022/04/27 05:44:26;;;;;;;;;23.00;21.00;;;;;9.78;41.80;101733.75;4980015;28;45588;-63
2022/04/27 05:46:55;;;;;;;;;19.75;19.25;;;;;9.78;41.56;101736.38;4981438;28;45389;-64
2022/04/27 05:49:21;;;;;;;;;21.25;17.50;;;;;9.72;41.90;101725.84;4981177;28;45277;-64
2022/04/27 05:51:47;;;;;;;;;20.00;18.00;;;;;9.81;41.98;101749.53;4981635;28;45496;-64
2022/04/27 05:54:16;;;;;;;;;23.00;22.25;;;;;9.81;41.87;101740.78;4981311;28;45267;-64
2022/04/27 05:56:43;;;;;;;;;24.50;21.00;;;;;9.83;41.82;101747.78;4980841;28;47308;-64
2022/04/27 05:59:09;;;;;;;;;19.00;18.75;;;;;9.85;42.12;101753.94;4981062;28;45338;-64
2022/04/27 06:01:35;;;;;;;;;22.50;18.25;;;;;9.88;42.10;101753.06;4981110;28;45282;-65
2022/04/27 06:04:00;;;;;;;;;24.75;21.25;;;;;9.85;42.18;101753.03;4981079;28;45429;-63
2022/04/27 06:06:25;;;;;;;;;37.75;32.75;;;;;9.90;42.14;101767.09;4981257;28;45234;-63
2022/04/27 06:08:51;;;;;;;;;21.25;19.00;;;;;9.92;41.82;101767.97;4981425;28;45361;-64
2022/04/27 06:11:19;;;;;;;;;22.50;21.00;;;;;9.95;42.05;101765.38;4981260;28;45443;-62
2022/04/27 06:13:45;;;;;;;;;23.75;20.25;;;;;9.97;41.73;101768.84;4981005;28;45310;-62
2022/04/27 06:16:10;;;;;;;;;18.50;18.00;;;;;10.00;42.19;101774.13;4980886;28;46188;-63
2022/04/27 06:18:35;;;;;;;;;22.00;17.00;;;;;10.01;42.21;101770.66;4979761;28;45390;-61
2022/04/27 06:21:01;;;;;;;;;30.25;25.50;;;;;10.02;42.27;101775.00;4981213;28;45553;-60
2022/04/27 06:23:27;;;;;;;;;22.50;19.50;;;;;10.04;42.27;101780.28;4981117;28;45427;-60
2022/04/27 06:25:53;;;;;;;;;18.25;17.50;;;;;10.08;41.99;101780.28;4980650;28;45321;-59
2022/04/27 06:28:19;;;;;;;;;21.25;21.25;;;;;10.10;42.20;101777.69;4980601;28;45171;-59
2022/04/27 06:30:44;;;;;;;;;23.50;21.25;;;;;10.13;42.08;101779.44;4981168;28;45179;-58
2022/04/27 06:33:10;;;;;;;;;24.25;21.75;;;;;10.17;42.31;101776.81;4980723;28;45246;-59
2022/04/27 06:35:36;;;;;;;;;15.50;15.50;;;;;10.19;42.11;101780.34;4980838;28;46396;-59
2022/04/27 06:38:01;;;;;;;;;27.00;24.75;;;;;10.22;42.24;101784.72;4980613;28;45476;-61
2022/04/27 06:40:27;;;;;;;;;23.25;21.50;;;;;10.26;42.34;101786.50;4980676;28;45755;-59
2022/04/27 06:42:56;;;;;;;;;21.75;20.50;;;;;10.30;42.31;101798.78;4980697;28;45245;-60
2022/04/27 06:45:24;;;;;;;;;21.25;20.00;;;;;10.33;42.24;101798.78;4980561;28;46376;-61
2022/04/27 06:47:49;;;;;;;;;23.00;22.00;;;;;10.35;42.57;101794.44;4980746;28;45386;-60
2022/04/27 06:50:16;;;;;;;;;25.50;21.75;;;;;10.42;42.30;101797.97;4980784;28;45294;-59
2022/04/27 06:52:43;;;;;;;;;27.25;25.25;;;;;10.46;42.49;101801.50;4980715;28;45409;-57
2022/04/27 06:55:09;;;;;;;;;22.25;22.25;;;;;10.50;42.51;101804.16;4980523;28;46951;-58
2022/04/27 06:57:35;;;;;;;;;24.75;22.50;;;;;10.53;42.35;101801.50;4980479;28;45309;-57
2022/04/27 07:00:00;;;;;;;;;27.25;22.50;;;;;10.58;42.32;101798.91;4979438;28;45760;-58
2022/04/27 07:02:27;;;;;;;;;26.25;23.75;;;;;10.62;42.42;101805.06;4979163;28;45560;-58
2022/04/27 07:04:59;;;;;;;;;29.75;23.25;;;;;10.66;42.59;101798.91;4980510;28;46639;-58
2022/04/27 07:07:24;;;;;;;;;29.25;24.50;;;;;10.70;42.54;101808.56;4969883;28;45607;-58
2022/04/27 07:09:50;;;;;;;;;23.00;21.00;;;;;10.73;42.50;101817.34;4971217;28;45358;-58
2022/04/27 07:12:15;;;;;;;;;33.25;26.50;;;;;10.76;42.51;101812.97;4972810;28;46559;-57
2022/04/27 07:14:40;;;;;;;;;20.75;18.25;;;;;10.82;42.66;101805.09;4968253;28;65903;-57
2022/04/27 07:17:05;;;;;;;;;24.25;23.50;;;;;10.89;42.38;101817.34;4973773;28;45353;-57
2022/04/27 07:19:31;;;;;;;;;16.75;15.50;;;;;10.93;42.60;101808.63;4964695;28;68376;-57
2022/04/27 07:21:56;;;;;;;;;22.75;20.50;;;;;10.99;42.60;101815.63;4963064;28;45484;-57
2022/04/27 07:24:22;;;;;;;;;25.75;23.50;;;;;11.03;42.51;101810.38;4970278;28;45452;-57
2022/04/27 07:26:47;;;;;;;;;28.75;25.50;;;;;11.10;42.28;101818.28;4968915;28;45307;-57
2022/04/27 07:29:12;;;;;;;;;22.75;22.75;;;;;11.14;42.43;101820.03;4969133;28;45388;-57
2022/04/27 07:31:38;;;;;;;;;27.50;22.75;;;;;11.20;42.59;101820.03;4965265;28;45525;-57
2022/04/27 07:34:03;;;;;;;;;27.25;23.50;;;;;11.25;42.70;101820.91;4969712;28;54076;-57
2022/04/27 07:36:28;;;;;;;;;28.25;27.75;;;;;11.29;42.56;101822.66;4969535;28;45208;-57
2022/04/27 07:38:53;;;;;;;;;29.75;25.50;;;;;11.37;42.58;101820.91;4970996;28;57020;-57
2022/04/27 07:41:19;;;;;;;;;17.25;17.25;;;;;11.42;42.51;101823.56;4969877;28;51537;-57
2022/04/27 07:43:44;;;;;;;;;26.25;22.00;;;;;11.48;42.60;101823.56;4970594;28;65250;-57
2022/04/27 07:46:11;;;;;;;;;21.75;21.75;;;;;11.55;42.52;101827.03;4965566;28;45283;-57
2022/04/27 07:48:36;;;;;;;;;23.00;22.75;;;;;11.61;42.56;101821.78;4970348;28;45559;-57
2022/04/27 07:51:03;;;;;;;;;29.75;26.75;;;;;11.67;42.53;101828.78;4971447;28;45498;-58
2022/04/27 07:53:29;;;;;;;;;27.25;21.75;;;;;11.75;42.53;101831.38;4971061;28;46556;-58
2022/04/27 07:55:54;;;;;;;;;19.50;17.25;;;;;11.81;42.48;101828.75;4963961;28;45264;-58
2022/04/27 07:58:20;;;;;;;;;23.25;19.50;;;;;11.88;42.53;101830.50;4970743;28;45427;-58
2022/04/27 08:00:45;;;;;;;;;29.75;25.25;;;;;11.94;42.61;101832.25;4971833;28;45449;-58
2022/04/27 08:03:11;;;;;;;;;24.75;22.25;;;;;11.99;42.46;101839.28;4971898;28;45389;-57
2022/04/27 08:05:36;;;;;;;;;32.50;28.50;;;;;12.06;42.58;101826.09;4965728;28;45339;-58
2022/04/27 08:08:01;;;;;;;;;24.00;24.00;;;;;12.12;42.56;101826.94;4978711;28;45490;-57
2022/04/27 08:10:27;;;;;;;;;29.25;26.25;;;;;12.20;42.53;101826.94;4984919;28;45459;-58
2022/04/27 08:12:53;;;;;;;;;35.50;29.00;;;;;12.25;42.70;101829.53;4993035;28;46049;-58
2022/04/27 08:15:24;;;;;;;;;24.25;23.25;;;;;12.31;42.32;101830.41;4989618;28;45277;-57
2022/04/27 08:17:55;;;;;;;;;28.00;26.00;;;;;12.40;42.51;101836.50;4996761;28;45265;-58
2022/04/27 08:23:08;;;;;;;;;23.00;20.50;;;;;12.54;42.64;101831.16;4997152;28;45458;-58
2022/04/27 08:25:34;;;;;;;;;23.25;22.00;;;;;12.63;42.54;101842.56;4999760;28;45404;-57
2022/04/27 08:28:03;;;;;;;;;25.50;24.25;;;;;12.67;42.38;101838.16;4995746;28;45499;-58
2022/04/27 08:30:28;;;;;;;;;23.25;22.50;;;;;12.77;42.76;101844.25;4999438;28;45326;-58
2022/04/27 08:32:59;;;;;;;;;25.50;24.00;;;;;12.86;42.57;101844.19;4994422;28;47284;-58
2022/04/27 08:35:25;;;;;;;;;25.25;24.25;;;;;12.91;42.19;101834.47;4999823;28;45320;-57
2022/04/27 08:37:50;;;;;;;;;26.25;22.50;;;;;13.03;42.71;101837.91;4997109;28;45470;-58
2022/04/27 08:40:16;;;;;;;;;22.25;21.00;;;;;13.03;42.56;101822.09;4998708;28;73242;-57
2022/04/27 08:42:41;;;;;;;;;23.75;22.50;;;;;13.22;42.43;101844.81;4987745;28;45331;-58
2022/04/27 08:45:07;;;;;;;;;26.75;25.00;;;;;13.31;42.45;101841.25;4999417;28;45336;-58
2022/04/27 08:47:34;;;;;;;;;27.75;22.75;;;;;13.41;42.69;101842.03;4997187;28;45230;-58
2022/04/27 08:50:19;;;;;;;;;23.00;23.00;;;;;13.51;42.64;101841.09;4999623;28;45254;-58
2022/04/27 08:52:45;;;;;;;;;24.75;23.00;;;;;13.60;42.40;101842.78;4977616;28;46449;-58
2022/04/27 08:55:12;;;;;;;;;32.75;29.50;;;;;13.70;42.75;101844.44;4996671;28;45239;-58
2022/04/27 08:57:38;;;;;;;;;25.25;23.25;;;;;13.78;42.26;101831.16;4999627;28;45432;-62
2022/04/27 09:00:06;;;;;;;;;28.25;25.00;;;;;13.89;42.55;101838.97;4996600;28;45424;-57
2022/04/27 09:02:32;;;;;;;;;29.25;25.25;;;;;14.00;42.12;101836.22;4999035;28;45463;-57
2022/04/27 09:05:07;;;;;;;;;24.50;22.75;;;;;14.11;42.59;101839.59;4996604;28;45254;-57
2022/04/27 09:07:40;;;;;;;;;28.75;24.00;;;;;14.22;42.34;101842.13;4990169;28;45314;-57
2022/04/27 09:10:10;;;;;;;;;34.25;29.00;;;;;14.33;42.46;101834.09;4994739;28;45507;-56
2022/04/27 09:12:43;;;;;;;;;25.75;24.00;;;;;14.44;42.19;101838.31;4998979;28;46760;-56
2022/04/27 09:15:09;;;;;;;;;29.25;27.50;;;;;14.53;42.17;101834.69;4995559;28;45239;-57
2022/04/27 09:23:05;;;;;;;;;26.75;24.00;;;;;14.92;42.34;101827.09;4987482;28;45675;-61
2022/04/27 09:25:35;;;;;;;;;27.00;24.75;;;;;15.07;42.19;101828.66;4997551;28;45352;-60
2022/04/27 09:28:02;;;;;;;;;29.25;24.75;;;;;15.20;41.97;101833.75;4994185;28;45315;-61
2022/04/27 09:30:30;;;;;;;;;25.75;22.50;;;;;15.33;42.42;101837.94;4996083;28;45480;-50
2022/04/27 09:32:55;;;;;;;;;30.75;27.25;;;;;15.44;42.44;101838.66;4992632;28;46409;-55
2022/04/27 09:35:34;;;;;;;;;32.25;30.00;;;;;15.57;41.80;101834.00;4994963;28;45378;-56
2022/04/27 09:38:16;;;;;;;;;28.50;27.25;;;;;15.72;42.06;101832.84;4996916;28;45462;-56
2022/04/27 09:40:50;;;;;;;;;31.50;26.75;;;;;15.85;42.18;101833.53;4993645;28;45585;-52
2022/04/27 09:43:16;;;;;;;;;22.25;19.50;;;;;15.98;41.89;101834.16;4990790;28;46238;-58
2022/04/27 09:45:45;;;;;;;;;28.00;23.50;;;;;16.10;41.93;101827.75;4996577;28;45400;-58
2022/04/27 09:48:18;;;;;;;;;28.25;25.25;;;;;16.24;41.71;101831.00;4994971;28;45368;-58
2022/04/27 09:51:02;;;;;;;;;29.50;26.50;;;;;16.43;41.88;101833.25;4989674;28;45492;-57
2022/04/27 09:53:29;;;;;;;;;23.25;18.75;;;;;16.59;41.64;101833.81;4996012;28;46127;-53
2022/04/27 09:55:59;;;;;;;;;28.75;24.00;;;;;16.77;41.39;101829.84;4998369;28;45341;-58
2022/04/27 09:58:27;;;;;;;;;21.25;18.50;;;;;16.90;41.31;101825.13;4995754;28;45402;-55
2022/04/27 10:00:56;;;;;;;;;22.50;20.50;;;;;17.10;41.35;101831.78;4998243;28;45410;-56
2022/04/27 10:03:24;;;;;;;;;26.00;22.00;;;;;17.25;41.31;101826.09;4995684;28;46843;-56
2022/04/27 10:05:49;;;;;;;;;23.25;21.25;;;;;17.42;41.35;101819.47;4981842;28;45336;-53
2022/04/27 10:08:15;;;;;;;;;28.25;24.00;;;;;17.55;41.25;101807.63;4982234;28;45396;-56
2022/04/27 10:10:42;;;;;;;;;20.75;17.50;;;;;17.74;41.07;101807.13;4982856;28;45419;-53
2022/04/27 10:13:11;;;;;;;;;22.00;18.75;;;;;17.91;41.06;101807.56;4992629;28;45578;-55
2022/04/27 10:15:41;;;;;;;;;22.50;19.25;;;;;18.09;40.88;101805.31;4986563;28;45341;-60
2022/04/27 10:18:06;;;;;;;;;18.25;15.25;;;;;18.28;40.97;101809.16;4990613;28;45918;-61
2022/04/27 10:20:33;;;;;;;;;24.75;22.75;;;;;18.46;40.84;101807.72;4996335;28;45731;-58
2022/04/27 10:23:31;;;;;;;;;25.00;23.25;;;;;18.70;40.71;101801.72;4995156;28;45435;-60
2022/04/27 10:26:09;;;;;;;;;24.50;24.00;;;;;19.00;40.69;101791.88;4996661;28;45454;-58
2022/04/27 10:28:43;;;;;;;;;23.00;22.00;;;;;19.28;40.50;101793.63;4988443;28;45482;-60
2022/04/27 10:31:08;;;;;;;;;20.75;19.50;;;;;19.55;40.57;101789.13;4995782;28;45403;-58
2022/04/27 10:33:50;;;;;;;;;23.50;22.00;;;;;19.83;40.69;101781.97;4998005;28;46097;-59
2022/04/27 10:36:27;;;;;;;;;22.25;18.75;;;;;20.03;39.95;101782.09;4995639;28;45353;-59
2022/04/27 10:39:16;;;;;;;;;25.25;22.50;;;;;20.22;40.15;101778.75;4996907;28;45420;-59
2022/04/27 10:42:05;;;;;;;;;20.25;20.25;;;;;20.40;39.65;101771.81;4980377;28;45541;-62
2022/04/27 10:44:57;;;;;;;;;20.50;20.50;;;;;20.65;39.73;101769.03;4960313;28;46312;-61
2022/04/27 10:47:22;;;;;;;;;25.25;22.50;;;;;20.97;40.10;101764.22;4994504;28;45298;-61
2022/04/27 10:50:08;;;;;;;;;20.00;18.75;;;;;21.39;40.20;101768.63;4997264;28;45302;-61
2022/04/27 10:52:44;;;;;;;;;24.00;22.75;;;;;21.97;40.49;101772.34;4997252;28;46244;-63
2022/04/27 10:55:35;;;;;;;;;19.50;16.50;;;;;22.60;39.89;101765.84;4996748;28;46124;-62
2022/04/27 10:58:37;;;;;;;;;22.50;22.00;;;;;23.30;40.03;101759.75;4998044;28;45253;-63
2022/04/27 11:01:11;;;;;;;;;18.75;18.25;;;;;24.00;39.82;101763.19;4998850;28;45416;-61
2022/04/27 11:03:38;;;;;;;;;18.00;18.00;;;;;24.62;39.56;101756.19;4997183;28;45537;-61
2022/04/27 11:06:12;;;;;;;;;19.25;17.50;;;;;25.24;39.06;101756.13;4998421;28;45481;-62
2022/04/27 11:08:52;;;;;;;;;22.00;22.00;;;;;25.93;39.40;101755.56;4982569;28;45464;-62
2022/04/27 11:11:18;;;;;;;;;19.00;18.50;;;;;26.55;39.14;101762.38;4996641;28;45533;-62
2022/04/27 11:13:44;;;;;;;;;17.75;15.75;;;;;27.09;38.71;101750.72;4994420;28;45388;-60
2022/04/27 11:16:14;;;;;;;;;20.25;18.25;;;;;27.64;38.11;101745.19;4993924;28;46437;-59
2022/04/27 11:18:50;;;;;;;;;18.00;16.50;;;;;28.29;38.16;101754.03;4983099;28;45296;-64
2022/04/27 11:21:18;;;;;;;;;20.50;20.50;;;;;28.96;37.66;101752.69;4993180;28;45636;-58
2022/04/27 11:23:44;;;;;;;;;20.50;18.25;;;;;29.65;37.66;101749.16;4997474;28;45354;-61
2022/04/27 11:26:10;;;;;;;;;19.50;19.25;;;;;30.29;36.90;101750.38;4994969;28;46277;-56
2022/04/27 11:28:39;;;;;;;;;21.00;18.75;;;;;30.80;36.67;101752.47;4995864;28;45620;-62
2022/04/27 11:31:04;;;;;;;;;16.00;14.00;;;;;31.24;36.83;101740.66;4994941;28;45231;-61
2022/04/27 11:33:31;;;;;;;;;16.25;15.75;;;;;31.65;35.65;101724.44;4997366;28;45390;-54
2022/04/27 11:35:56;;;;;;;;;15.25;15.25;;;;;32.24;36.01;101741.84;4994946;28;45549;-57
2022/04/27 11:38:33;;;;;;;;;16.00;15.25;;;;;32.71;35.16;101744.72;4996617;28;63025;-57